Time;durP1;ratioP1;P1;durP2;ratioP2;P2;SDS_P1;SDS_P2;PMS_P1;PMS_P2;Temp;Humidity;BMP_temperature;BMP_pressure;BME280_temperature;BME280_humidity;BME280_pressure;Samples;Min_cycle;Max_cycle;Signal;HPM_P1;HPM_P2
2022/07/25 00:02:07;;;;;;;20.75;5.45;;;;;;;;;;5046133;28;20035;-73
2022/07/25 00:04:32;;;;;;;0.20;0.20;;;;;;;;;;5034796;28;20021;-72
2022/07/25 00:06:58;;;;;;;0.28;0.28;;;;;;;;;;5033089;28;20045;-75
2022/07/25 00:09:23;;;;;;;0.30;0.30;;;;;;;;;;5032891;28;20026;-75
2022/07/25 00:11:49;;;;;;;0.68;0.68;;;;;;;;;;5043139;28;20048;-74
2022/07/25 00:14:14;;;;;;;0.20;0.20;;;;;;;;;;5052905;28;20025;-75
2022/07/25 00:16:40;;;;;;;0.20;0.20;;;;;;;;;;5052017;28;20025;-75
2022/07/25 00:19:05;;;;;;;0.20;0.20;;;;;;;;;;5052784;28;20017;-74
2022/07/25 00:21:31;;;;;;;0.20;0.20;;;;;;;;;;5051434;28;20132;-74
2022/07/25 00:23:57;;;;;;;0.50;0.50;;;;;;;;;;5052847;28;20028;-74
2022/07/25 00:26:22;;;;;;;0.32;0.32;;;;;;;;;;5053120;28;20116;-74
2022/07/25 00:28:48;;;;;;;0.20;0.20;;;;;;;;;;5056846;28;20029;-74
2022/07/25 00:31:13;;;;;;;0.30;0.30;;;;;;;;;;5056994;28;20102;-74
2022/07/25 00:33:39;;;;;;;0.38;0.38;;;;;;;;;;5056748;28;20053;-73
2022/07/25 00:36:07;;;;;;;0.20;0.20;;;;;;;;;;5056736;28;20025;-73
2022/07/25 00:38:33;;;;;;;0.40;0.40;;;;;;;;;;5056598;28;20036;-73
2022/07/25 00:40:58;;;;;;;0.85;0.85;;;;;;;;;;5056643;28;20029;-73
2022/07/25 00:43:24;;;;;;;0.60;0.60;;;;;;;;;;5056466;28;20108;-73
2022/07/25 00:45:49;;;;;;;0.20;0.20;;;;;;;;;;5056781;28;20491;-73
2022/07/25 00:48:15;;;;;;;0.30;0.30;;;;;;;;;;5056692;28;20107;-73
2022/07/25 00:50:41;;;;;;;0.60;0.60;;;;;;;;;;5056534;28;20561;-73
2022/07/25 00:53:06;;;;;;;0.22;0.22;;;;;;;;;;5056481;28;20025;-75
2022/07/25 00:55:32;;;;;;;0.65;0.50;;;;;;;;;;5054985;28;20021;-75
2022/07/25 00:57:58;;;;;;;0.35;0.35;;;;;;;;;;5054554;28;20641;-73
2022/07/25 01:00:23;;;;;;;0.30;0.30;;;;;;;;;;5055050;28;20033;-74
2022/07/25 01:02:49;;;;;;;0.25;0.25;;;;;;;;;;5056301;28;20032;-74
2022/07/25 01:05:15;;;;;;;0.20;0.20;;;;;;;;;;5054996;28;20037;-73
2022/07/25 01:07:40;;;;;;;0.65;0.55;;;;;;;;;;5056141;28;20025;-73
2022/07/25 01:10:07;;;;;;;0.80;0.68;;;;;;;;;;5054366;28;20130;-73
2022/07/25 01:12:42;;;;;;;0.20;0.20;;;;;;;;;;5054552;28;20091;-73
2022/07/25 01:15:08;;;;;;;0.35;0.35;;;;;;;;;;5055163;28;20033;-73
2022/07/25 01:17:34;;;;;;;0.63;0.63;;;;;;;;;;5055930;28;20488;-73
2022/07/25 01:19:59;;;;;;;0.40;0.40;;;;;;;;;;5054886;28;20048;-74
2022/07/25 01:22:25;;;;;;;0.43;0.43;;;;;;;;;;5055927;28;20029;-73
2022/07/25 01:24:50;;;;;;;0.30;0.30;;;;;;;;;;5055067;28;20048;-73
2022/07/25 01:27:16;;;;;;;0.80;0.80;;;;;;;;;;5055877;28;20362;-74
2022/07/25 01:29:41;;;;;;;0.30;0.30;;;;;;;;;;5055651;28;20037;-73
2022/07/25 01:32:07;;;;;;;0.50;0.50;;;;;;;;;;5056047;28;20074;-74
2022/07/25 01:34:32;;;;;;;0.20;0.20;;;;;;;;;;5055293;28;20405;-74
2022/07/25 01:36:58;;;;;;;1.30;1.27;;;;;;;;;;5055490;28;20017;-74
2022/07/25 01:39:24;;;;;;;0.30;0.30;;;;;;;;;;5055581;28;20025;-73
2022/07/25 01:41:49;;;;;;;0.20;0.20;;;;;;;;;;5055359;28;20032;-74
2022/07/25 01:44:16;;;;;;;0.43;0.43;;;;;;;;;;5055434;28;20029;-74
2022/07/25 01:46:41;;;;;;;0.30;0.30;;;;;;;;;;5054315;28;20025;-73
2022/07/25 01:49:07;;;;;;;3.08;1.17;;;;;;;;;;5055735;28;20036;-72
2022/07/25 01:51:32;;;;;;;0.20;0.20;;;;;;;;;;5055303;28;20147;-72
2022/07/25 01:53:57;;;;;;;0.38;0.38;;;;;;;;;;5055315;28;20096;-74
2022/07/25 01:56:23;;;;;;;0.20;0.20;;;;;;;;;;5055040;28;20369;-74
2022/07/25 01:58:48;;;;;;;0.60;0.60;;;;;;;;;;5055247;28;20060;-74
2022/07/25 02:01:14;;;;;;;0.20;0.20;;;;;;;;;;5055275;28;20029;-74
2022/07/25 02:03:39;;;;;;;3.88;3.35;;;;;;;;;;5055142;28;20029;-73
2022/07/25 02:06:06;;;;;;;0.20;0.20;;;;;;;;;;5055128;28;20074;-73
2022/07/25 02:08:31;;;;;;;0.20;0.20;;;;;;;;;;5055192;28;20082;-72
2022/07/25 02:10:57;;;;;;;0.25;0.25;;;;;;;;;;5055460;28;20033;-73
2022/07/25 02:13:23;;;;;;;0.20;0.20;;;;;;;;;;5054936;28;20029;-72
2022/07/25 02:15:48;;;;;;;0.20;0.20;;;;;;;;;;5055303;28;20032;-72
2022/07/25 02:18:14;;;;;;;0.20;0.20;;;;;;;;;;5055221;28;20025;-72
2022/07/25 02:20:39;;;;;;;13.48;3.40;;;;;;;;;;5055059;28;20021;-72
2022/07/25 02:23:05;;;;;;;0.20;0.20;;;;;;;;;;5053527;28;20376;-72
2022/07/25 02:25:30;;;;;;;0.25;0.25;;;;;;;;;;5054672;28;20130;-73
2022/07/25 02:27:56;;;;;;;0.20;0.20;;;;;;;;;;5054812;28;20033;-72
2022/07/25 02:30:22;;;;;;;0.32;0.32;;;;;;;;;;5054667;28;20065;-74
2022/07/25 02:32:47;;;;;;;0.55;0.55;;;;;;;;;;5054846;28;20049;-74
2022/07/25 02:35:13;;;;;;;0.20;0.20;;;;;;;;;;5054742;28;20057;-75
2022/07/25 02:37:38;;;;;;;0.20;0.20;;;;;;;;;;5053394;28;20048;-75
2022/07/25 02:40:04;;;;;;;0.40;0.40;;;;;;;;;;5054525;28;20091;-74
2022/07/25 02:42:30;;;;;;;0.30;0.30;;;;;;;;;;5054313;28;20040;-73
2022/07/25 02:44:55;;;;;;;0.20;0.20;;;;;;;;;;5054700;28;20431;-74
2022/07/25 02:47:21;;;;;;;0.25;0.25;;;;;;;;;;5054429;28;20071;-73
2022/07/25 02:49:46;;;;;;;0.35;0.35;;;;;;;;;;5053989;28;20021;-71
2022/07/25 02:52:12;;;;;;;1.20;1.20;;;;;;;;;;5054265;28;20388;-73
2022/07/25 02:54:37;;;;;;;0.20;0.20;;;;;;;;;;5054285;28;20036;-74
2022/07/25 02:57:03;;;;;;;0.20;0.20;;;;;;;;;;5054096;28;20376;-74
2022/07/25 02:59:28;;;;;;;0.52;0.52;;;;;;;;;;5054606;28;20484;-73
2022/07/25 03:01:54;;;;;;;0.32;0.32;;;;;;;;;;5053287;28;20429;-72
2022/07/25 03:04:19;;;;;;;0.20;0.20;;;;;;;;;;5047879;28;20569;-73
2022/07/25 03:06:44;;;;;;;5.55;5.05;;;;;;;;;;5050474;28;20086;-73
2022/07/25 03:09:10;;;;;;;0.52;0.52;;;;;;;;;;5048472;28;20066;-73
2022/07/25 03:11:36;;;;;;;0.77;0.55;;;;;;;;;;5050045;28;20053;-74
2022/07/25 03:14:02;;;;;;;0.40;0.40;;;;;;;;;;5050040;28;20041;-74
2022/07/25 03:16:27;;;;;;;0.73;0.73;;;;;;;;;;5050627;28;20044;-74
2022/07/25 03:18:53;;;;;;;3.42;1.65;;;;;;;;;;5050075;28;20025;-75
2022/07/25 03:21:19;;;;;;;4.25;2.83;;;;;;;;;;5050167;28;20109;-76
2022/07/25 03:23:44;;;;;;;0.25;0.25;;;;;;;;;;5050068;28;20039;-73
2022/07/25 03:26:10;;;;;;;0.20;0.20;;;;;;;;;;5050203;28;20922;-74
2022/07/25 03:28:35;;;;;;;0.20;0.20;;;;;;;;;;5049625;28;20024;-74
2022/07/25 03:31:01;;;;;;;0.22;0.22;;;;;;;;;;5049304;28;20396;-73
2022/07/25 03:33:26;;;;;;;5.72;5.25;;;;;;;;;;5049693;28;20049;-73
2022/07/25 03:35:52;;;;;;;0.40;0.40;;;;;;;;;;5049958;28;20481;-73
2022/07/25 03:38:17;;;;;;;0.35;0.35;;;;;;;;;;5049532;28;20218;-74
2022/07/25 03:40:43;;;;;;;0.20;0.20;;;;;;;;;;5049481;28;20037;-73
2022/07/25 03:43:08;;;;;;;0.50;0.50;;;;;;;;;;5049223;28;20056;-73
2022/07/25 03:45:33;;;;;;;0.10;0.10;;;;;;;;;;5049366;28;20021;-73
2022/07/25 03:47:59;;;;;;;0.47;0.47;;;;;;;;;;5048213;28;20134;-72
2022/07/25 03:50:24;;;;;;;0.20;0.20;;;;;;;;;;5049704;28;20121;-74
2022/07/25 03:52:50;;;;;;;0.10;0.10;;;;;;;;;;5049148;28;20029;-75
2022/07/25 03:55:15;;;;;;;0.20;0.20;;;;;;;;;;5048961;28;20810;-74
2022/07/25 03:57:41;;;;;;;0.20;0.20;;;;;;;;;;5048900;28;20044;-73
2022/07/25 04:00:08;;;;;;;1.60;1.52;;;;;;;;;;5046326;28;20025;-74
2022/07/25 04:02:34;;;;;;;0.20;0.20;;;;;;;;;;5048590;28;20048;-73
2022/07/25 04:04:59;;;;;;;3.42;3.22;;;;;;;;;;5047685;28;20025;-73
2022/07/25 04:07:24;;;;;;;4.63;3.83;;;;;;;;;;5049291;28;20028;-74
2022/07/25 04:09:50;;;;;;;3.17;2.92;;;;;;;;;;5048915;28;20534;-74
2022/07/25 04:12:15;;;;;;;10.50;2.38;;;;;;;;;;5047975;28;20423;-73
2022/07/25 04:14:41;;;;;;;0.20;0.20;;;;;;;;;;5049232;28;20464;-73
2022/07/25 04:17:06;;;;;;;0.55;0.55;;;;;;;;;;5049223;28;20376;-74
2022/07/25 04:19:31;;;;;;;0.20;0.20;;;;;;;;;;5049171;28;20041;-75
2022/07/25 04:21:57;;;;;;;0.50;0.50;;;;;;;;;;5047403;28;20020;-75
2022/07/25 04:24:22;;;;;;;1.17;1.08;;;;;;;;;;5049089;28;20033;-75
2022/07/25 04:26:51;;;;;;;0.25;0.25;;;;;;;;;;5048826;28;20082;-75
2022/07/25 04:29:16;;;;;;;0.77;0.75;;;;;;;;;;5049168;28;20024;-72
2022/07/25 04:31:42;;;;;;;0.75;0.75;;;;;;;;;;5047310;28;20090;-73
2022/07/25 04:34:07;;;;;;;3.90;1.42;;;;;;;;;;5047127;28;20115;-73
2022/07/25 04:36:32;;;;;;;9.45;2.47;;;;;;;;;;5046782;28;20059;-74
2022/07/25 04:38:58;;;;;;;0.22;0.22;;;;;;;;;;5032881;28;20036;-74
2022/07/25 04:41:25;;;;;;;0.38;0.38;;;;;;;;;;5049205;28;20025;-75
2022/07/25 04:43:51;;;;;;;2.17;0.75;;;;;;;;;;5049144;28;20480;-75
2022/07/25 04:46:18;;;;;;;0.20;0.20;;;;;;;;;;5048641;28;20025;-74
2022/07/25 04:48:43;;;;;;;0.20;0.20;;;;;;;;;;5048250;28;20029;-74
2022/07/25 04:51:10;;;;;;;0.70;0.65;;;;;;;;;;5048836;28;20085;-73
2022/07/25 04:53:35;;;;;;;0.95;0.88;;;;;;;;;;5046720;28;20029;-74
2022/07/25 04:56:01;;;;;;;0.20;0.20;;;;;;;;;;5048932;28;20108;-73
2022/07/25 04:58:26;;;;;;;0.20;0.20;;;;;;;;;;5048661;28;20056;-73
2022/07/25 05:00:52;;;;;;;0.22;0.22;;;;;;;;;;5049346;28;20523;-73
2022/07/25 05:03:17;;;;;;;0.32;0.32;;;;;;;;;;5048317;28;20158;-75
2022/07/25 05:05:43;;;;;;;0.30;0.30;;;;;;;;;;5049658;28;20499;-72
2022/07/25 05:08:08;;;;;;;0.90;0.90;;;;;;;;;;5049882;28;20024;-73
2022/07/25 05:10:34;;;;;;;0.60;0.60;;;;;;;;;;5049760;28;20122;-75
2022/07/25 05:12:59;;;;;;;0.52;0.52;;;;;;;;;;5051616;28;20025;-74
2022/07/25 05:15:25;;;;;;;0.30;0.30;;;;;;;;;;5051328;28;20457;-76
2022/07/25 05:17:50;;;;;;;0.85;0.85;;;;;;;;;;5052287;28;20035;-74
2022/07/25 05:20:16;;;;;;;0.47;0.47;;;;;;;;;;5051687;28;20064;-75
2022/07/25 05:22:42;;;;;;;4.40;1.85;;;;;;;;;;5051694;28;20021;-74
2022/07/25 05:25:09;;;;;;;9.07;3.22;;;;;;;;;;5050154;28;20535;-74
2022/07/25 05:27:34;;;;;;;0.28;0.28;;;;;;;;;;5051987;28;20039;-74
2022/07/25 05:30:00;;;;;;;0.20;0.20;;;;;;;;;;5052374;28;20445;-74
2022/07/25 05:32:25;;;;;;;0.20;0.20;;;;;;;;;;5050932;28;20485;-74
2022/07/25 05:34:51;;;;;;;0.20;0.20;;;;;;;;;;5051313;28;20040;-74
2022/07/25 05:37:16;;;;;;;0.43;0.43;;;;;;;;;;5053103;28;20090;-74
2022/07/25 05:39:43;;;;;;;0.85;0.85;;;;;;;;;;5050579;28;20029;-74
2022/07/25 05:42:08;;;;;;;0.68;0.68;;;;;;;;;;5050436;28;20086;-73
2022/07/25 05:44:34;;;;;;;1.70;1.52;;;;;;;;;;5050673;28;20025;-74
2022/07/25 05:46:59;;;;;;;1.15;1.05;;;;;;;;;;5047821;28;20465;-73
2022/07/25 05:49:25;;;;;;;0.30;0.30;;;;;;;;;;5055394;28;20029;-73
2022/07/25 05:51:50;;;;;;;0.28;0.28;;;;;;;;;;5068389;28;20395;-73
2022/07/25 05:54:16;;;;;;;0.20;0.20;;;;;;;;;;5071659;28;20031;-73
2022/07/25 05:56:41;;;;;;;0.20;0.20;;;;;;;;;;5071638;28;20115;-73
2022/07/25 05:59:07;;;;;;;0.40;0.40;;;;;;;;;;5070962;28;20072;-73
2022/07/25 06:01:32;;;;;;;0.35;0.35;;;;;;;;;;5071586;28;20020;-74
2022/07/25 06:03:58;;;;;;;0.30;0.30;;;;;;;;;;5071386;28;20029;-74
2022/07/25 06:06:24;;;;;;;0.30;0.30;;;;;;;;;;5071514;28;20395;-73
2022/07/25 06:08:49;;;;;;;0.65;0.55;;;;;;;;;;5071362;28;20106;-73
2022/07/25 06:11:15;;;;;;;0.40;0.40;;;;;;;;;;5044687;28;20509;-73
2022/07/25 06:13:40;;;;;;;23.55;22.00;;;;;;;;;;5042098;28;20025;-73
2022/07/25 06:16:06;;;;;;;0.55;0.55;;;;;;;;;;5051595;28;20029;-74
2022/07/25 06:18:31;;;;;;;0.40;0.40;;;;;;;;;;5058521;28;20033;-74
2022/07/25 06:20:57;;;;;;;1.80;0.80;;;;;;;;;;5059834;28;20017;-75
2022/07/25 06:23:22;;;;;;;0.30;0.30;;;;;;;;;;5050527;28;20033;-72
2022/07/25 06:25:48;;;;;;;0.40;0.40;;;;;;;;;;5051547;28;20013;-75
2022/07/25 06:28:14;;;;;;;0.43;0.43;;;;;;;;;;5050764;28;20060;-75
2022/07/25 06:30:40;;;;;;;0.30;0.30;;;;;;;;;;5050205;28;20038;-75
2022/07/25 06:33:06;;;;;;;2.05;1.10;;;;;;;;;;5046062;28;20064;-74
2022/07/25 06:35:31;;;;;;;0.32;0.32;;;;;;;;;;5031016;28;20041;-75
2022/07/25 06:37:57;;;;;;;0.40;0.40;;;;;;;;;;5031644;28;20492;-74
2022/07/25 06:40:25;;;;;;;0.40;0.40;;;;;;;;;;5039898;28;20025;-73
2022/07/25 06:42:51;;;;;;;0.55;0.55;;;;;;;;;;5049681;28;20029;-73
2022/07/25 06:45:16;;;;;;;0.50;0.50;;;;;;;;;;5050404;28;20032;-74
2022/07/25 06:47:43;;;;;;;0.47;0.47;;;;;;;;;;5050542;28;20029;-74
2022/07/25 06:50:09;;;;;;;0.50;0.50;;;;;;;;;;5052520;28;20029;-74
2022/07/25 06:52:35;;;;;;;0.60;0.60;;;;;;;;;;5049185;28;20380;-74
2022/07/25 06:55:01;;;;;;;0.55;0.55;;;;;;;;;;5052184;28;20037;-74
2022/07/25 06:57:27;;;;;;;0.43;0.43;;;;;;;;;;5034316;28;20017;-72
2022/07/25 06:59:52;;;;;;;0.40;0.40;;;;;;;;;;5050336;28;20377;-72
2022/07/25 07:02:18;;;;;;;0.40;0.40;;;;;;;;;;5050136;28;20028;-72
2022/07/25 07:04:43;;;;;;;0.43;0.43;;;;;;;;;;5050564;28;20066;-72
2022/07/25 07:07:08;;;;;;;0.40;0.40;;;;;;;;;;5050376;28;20417;-73
2022/07/25 07:09:34;;;;;;;0.30;0.30;;;;;;;;;;5032555;28;20535;-72
2022/07/25 07:11:59;;;;;;;0.30;0.30;;;;;;;;;;5032410;28;20412;-72
2022/07/25 07:14:25;;;;;;;0.32;0.32;;;;;;;;;;5050116;28;20423;-73
2022/07/25 07:16:50;;;;;;;0.30;0.30;;;;;;;;;;5048957;28;20063;-73
2022/07/25 07:19:16;;;;;;;0.30;0.30;;;;;;;;;;5050154;28;20037;-73
2022/07/25 07:21:42;;;;;;;0.40;0.40;;;;;;;;;;5048681;28;20029;-72
2022/07/25 07:24:07;;;;;;;0.50;0.50;;;;;;;;;;5050136;28;20495;-68
2022/07/25 07:26:33;;;;;;;0.40;0.40;;;;;;;;;;5051911;28;20020;-71
2022/07/25 07:28:59;;;;;;;0.40;0.40;;;;;;;;;;5052622;28;20457;-69
2022/07/25 07:31:24;;;;;;;2.50;1.55;;;;;;;;;;5050064;28;20044;-70
2022/07/25 07:33:50;;;;;;;0.50;0.50;;;;;;;;;;5048316;28;20045;-68
2022/07/25 07:36:15;;;;;;;0.50;0.50;;;;;;;;;;5052062;28;20029;-74
2022/07/25 07:38:43;;;;;;;0.30;0.30;;;;;;;;;;5049870;28;20025;-69
2022/07/25 07:41:08;;;;;;;1.98;1.88;;;;;;;;;;5050315;28;20036;-70
2022/07/25 07:43:34;;;;;;;0.35;0.35;;;;;;;;;;5049465;28;20016;-69
2022/07/25 07:46:00;;;;;;;0.30;0.30;;;;;;;;;;5048325;28;20445;-70
2022/07/25 07:48:26;;;;;;;1.60;1.50;;;;;;;;;;5049733;28;20029;-69
2022/07/25 07:50:51;;;;;;;0.40;0.40;;;;;;;;;;5049522;28;20044;-70
2022/07/25 07:53:17;;;;;;;0.73;0.70;;;;;;;;;;5049657;28;20028;-71
2022/07/25 07:55:42;;;;;;;2.47;2.38;;;;;;;;;;5049464;28;20032;-71
2022/07/25 07:58:08;;;;;;;0.30;0.30;;;;;;;;;;5049603;28;20468;-71
2022/07/25 08:00:35;;;;;;;0.30;0.30;;;;;;;;;;5049652;28;20029;-68
2022/07/25 08:03:01;;;;;;;0.40;0.40;;;;;;;;;;5049728;28;20029;-70
2022/07/25 08:05:28;;;;;;;0.30;0.30;;;;;;;;;;5038069;28;20427;-70
2022/07/25 08:07:54;;;;;;;0.40;0.40;;;;;;;;;;5039680;28;20136;-73
2022/07/25 08:10:23;;;;;;;0.50;0.50;;;;;;;;;;5043157;28;20455;-70
2022/07/25 08:12:49;;;;;;;0.40;0.40;;;;;;;;;;5048882;28;20036;-71
2022/07/25 08:15:15;;;;;;;0.40;0.40;;;;;;;;;;5045871;28;20025;-69
2022/07/25 08:17:40;;;;;;;0.38;0.38;;;;;;;;;;5047851;28;20590;-70
2022/07/25 08:20:07;;;;;;;0.47;0.47;;;;;;;;;;5048427;28;20083;-70
2022/07/25 08:22:36;;;;;;;0.38;0.38;;;;;;;;;;5045668;28;20033;-70
2022/07/25 08:25:02;;;;;;;0.40;0.40;;;;;;;;;;5037423;28;20464;-70
2022/07/25 08:27:27;;;;;;;0.47;0.47;;;;;;;;;;5043890;28;20120;-70
2022/07/25 08:29:53;;;;;;;0.80;0.80;;;;;;;;;;5039732;28;20040;-69
2022/07/25 08:32:18;;;;;;;0.70;0.70;;;;;;;;;;5048992;28;20061;-69
2022/07/25 08:34:44;;;;;;;0.60;0.60;;;;;;;;;;5048790;28;20052;-69
2022/07/25 08:37:09;;;;;;;0.50;0.50;;;;;;;;;;5048603;28;20025;-70
2022/07/25 08:39:35;;;;;;;0.50;0.50;;;;;;;;;;5046386;28;20373;-71
2022/07/25 08:42:01;;;;;;;0.50;0.50;;;;;;;;;;5047358;28;20531;-75
2022/07/25 08:44:30;;;;;;;0.50;0.50;;;;;;;;;;5049136;28;20024;-75
2022/07/25 08:46:56;;;;;;;0.85;0.85;;;;;;;;;;5045429;28;20025;-70
2022/07/25 08:49:22;;;;;;;0.40;0.40;;;;;;;;;;5026919;28;20027;-71
2022/07/25 08:51:49;;;;;;;2.50;2.35;;;;;;;;;;5047255;28;20381;-70
2022/07/25 08:54:14;;;;;;;0.60;0.60;;;;;;;;;;5052648;28;20146;-70
2022/07/25 08:56:40;;;;;;;0.47;0.47;;;;;;;;;;5051314;28;20042;-69
2022/07/25 08:59:05;;;;;;;1.63;1.52;;;;;;;;;;5053138;28;20051;-70
2022/07/25 09:01:31;;;;;;;1.05;0.95;;;;;;;;;;5046430;28;20024;-70
2022/07/25 09:03:57;;;;;;;0.40;0.40;;;;;;;;;;5048597;28;20492;-70
2022/07/25 09:06:22;;;;;;;0.50;0.50;;;;;;;;;;5052671;28;20143;-71
2022/07/25 09:08:50;;;;;;;1.65;1.55;;;;;;;;;;5046353;28;20109;-70
2022/07/25 09:11:24;;;;;;;0.40;0.40;;;;;;;;;;5039801;28;20610;-70
2022/07/25 09:13:56;;;;;;;0.57;0.57;;;;;;;;;;5041390;28;20108;-70
2022/07/25 09:16:27;;;;;;;0.60;0.60;;;;;;;;;;5039640;28;20033;-70
2022/07/25 09:18:53;;;;;;;0.73;0.73;;;;;;;;;;5043404;28;20488;-72
2022/07/25 09:21:18;;;;;;;1.60;1.50;;;;;;;;;;5043426;28;20037;-70
2022/07/25 09:23:44;;;;;;;1.42;1.27;;;;;;;;;;5047382;28;20036;-71
2022/07/25 09:26:11;;;;;;;0.65;0.65;;;;;;;;;;5042726;28;20032;-70
2022/07/25 09:28:44;;;;;;;0.52;0.52;;;;;;;;;;5052069;28;20345;-73
2022/07/25 09:31:10;;;;;;;0.60;0.60;;;;;;;;;;5052253;28;20041;-71
2022/07/25 09:33:46;;;;;;;0.60;0.60;;;;;;;;;;5055173;28;20053;-69
2022/07/25 09:36:12;;;;;;;0.60;0.60;;;;;;;;;;5033650;28;20500;-71
2022/07/25 09:38:37;;;;;;;2.90;1.70;;;;;;;;;;5053274;28;20159;-71
2022/07/25 09:41:03;;;;;;;0.63;0.63;;;;;;;;;;5048482;28;20136;-69
2022/07/25 09:43:39;;;;;;;0.80;0.80;;;;;;;;;;5043946;28;20033;-69
2022/07/25 09:46:05;;;;;;;1.55;1.30;;;;;;;;;;5036655;28;20100;-70
2022/07/25 09:48:31;;;;;;;2.47;1.63;;;;;;;;;;5032547;28;20032;-69
2022/07/25 09:50:57;;;;;;;0.75;0.75;;;;;;;;;;5044351;28;20029;-70
2022/07/25 09:53:23;;;;;;;1.83;1.65;;;;;;;;;;5039798;28;20025;-71
2022/07/25 09:55:49;;;;;;;7.30;2.67;;;;;;;;;;5048370;28;20031;-74
2022/07/25 09:58:14;;;;;;;2.40;0.95;;;;;;;;;;5041465;28;20447;-71
2022/07/25 10:00:41;;;;;;;1.75;1.63;;;;;;;;;;5043863;28;20104;-69
2022/07/25 10:03:13;;;;;;;0.45;0.45;;;;;;;;;;5055462;28;20056;-69
2022/07/25 10:06:14;;;;;;;0.60;0.60;;;;;;;;;;5051195;28;20083;-72
2022/07/25 10:08:40;;;;;;;2.75;2.03;;;;;;;;;;4970750;28;20482;-70
2022/07/25 10:11:16;;;;;;;2.63;1.98;;;;;;;;;;5018447;28;20180;-71
2022/07/25 10:13:42;;;;;;;0.40;0.40;;;;;;;;;;5044017;28;20037;-71
2022/07/25 10:16:15;;;;;;;1.27;1.17;;;;;;;;;;5044009;28;20032;-72
2022/07/25 10:18:46;;;;;;;2.28;2.13;;;;;;;;;;5041987;28;20489;-71
2022/07/25 10:21:12;;;;;;;0.63;0.55;;;;;;;;;;5046342;28;20095;-71
2022/07/25 10:23:37;;;;;;;1.20;1.10;;;;;;;;;;5043528;28;20057;-70
2022/07/25 10:26:07;;;;;;;3.55;0.75;;;;;;;;;;5041654;28;20029;-70
2022/07/25 10:28:37;;;;;;;0.40;0.40;;;;;;;;;;5035669;28;20029;-70
2022/07/25 10:31:12;;;;;;;2.33;1.50;;;;;;;;;;5042121;28;20047;-69
2022/07/25 10:33:40;;;;;;;4.35;2.33;;;;;;;;;;5050508;28;20099;-70
2022/07/25 10:36:06;;;;;;;0.60;0.60;;;;;;;;;;5021952;28;20037;-71
2022/07/25 10:38:32;;;;;;;2.58;1.65;;;;;;;;;;5017453;28;20503;-70
2022/07/25 10:41:00;;;;;;;1.58;1.48;;;;;;;;;;5033171;28;20017;-70
2022/07/25 10:43:26;;;;;;;0.60;0.60;;;;;;;;;;5038318;28;20048;-70
2022/07/25 10:45:58;;;;;;;2.03;1.83;;;;;;;;;;5030818;28;20036;-71
2022/07/25 10:48:25;;;;;;;4.13;2.38;;;;;;;;;;5030730;28;20427;-69
2022/07/25 10:50:50;;;;;;;0.93;0.88;;;;;;;;;;5030793;28;20029;-69
2022/07/25 10:53:26;;;;;;;1.58;1.48;;;;;;;;;;5043350;28;20117;-71
2022/07/25 10:55:55;;;;;;;1.38;1.15;;;;;;;;;;5049925;28;20032;-70
2022/07/25 10:58:21;;;;;;;0.43;0.43;;;;;;;;;;5050757;28;20071;-70
2022/07/25 11:00:46;;;;;;;0.50;0.50;;;;;;;;;;5050879;28;20092;-70
2022/07/25 11:03:12;;;;;;;1.38;1.27;;;;;;;;;;5050682;28;20473;-70
2022/07/25 11:05:45;;;;;;;3.63;1.10;;;;;;;;;;5036928;28;20030;-70
2022/07/25 11:08:11;;;;;;;5.65;1.70;;;;;;;;;;5044634;28;20036;-74
2022/07/25 11:10:36;;;;;;;0.98;0.98;;;;;;;;;;5040638;28;20409;-72
2022/07/25 11:13:02;;;;;;;1.88;1.52;;;;;;;;;;5039018;28;20036;-70
2022/07/25 11:15:27;;;;;;;0.50;0.50;;;;;;;;;;5044415;28;20025;-70
2022/07/25 11:17:54;;;;;;;3.85;2.03;;;;;;;;;;5049827;28;20146;-71
2022/07/25 11:20:20;;;;;;;3.47;3.25;;;;;;;;;;5050515;28;20037;-73
2022/07/25 11:22:52;;;;;;;3.22;2.17;;;;;;;;;;5048819;28;20167;-71
2022/07/25 11:25:19;;;;;;;0.40;0.40;;;;;;;;;;5050111;28;20139;-70
2022/07/25 11:27:48;;;;;;;4.05;2.75;;;;;;;;;;5050068;28;20482;-70
2022/07/25 11:30:20;;;;;;;0.90;0.90;;;;;;;;;;5042521;28;20076;-70
2022/07/25 11:32:50;;;;;;;9.38;3.95;;;;;;;;;;5037964;28;20108;-70
2022/07/25 11:35:15;;;;;;;1.67;1.27;;;;;;;;;;5041721;28;20104;-71
2022/07/25 11:37:42;;;;;;;0.68;0.68;;;;;;;;;;5050035;28;20195;-71
2022/07/25 11:40:08;;;;;;;0.43;0.43;;;;;;;;;;5049721;28;20017;-70
2022/07/25 11:42:41;;;;;;;2.85;1.38;;;;;;;;;;5044260;28;20472;-70
2022/07/25 11:45:16;;;;;;;2.28;1.60;;;;;;;;;;5026098;28;20021;-70
2022/07/25 11:47:42;;;;;;;6.15;2.92;;;;;;;;;;5050741;28;20102;-74
2022/07/25 11:50:13;;;;;;;3.63;3.33;;;;;;;;;;5043981;28;20025;-71
2022/07/25 11:52:41;;;;;;;1.15;1.05;;;;;;;;;;5049762;28;20126;-70
2022/07/25 11:55:09;;;;;;;4.93;3.22;;;;;;;;;;5048580;28;20556;-71
2022/07/25 11:57:37;;;;;;;4.88;2.03;;;;;;;;;;5046978;28;20047;-70
2022/07/25 12:00:20;;;;;;;1.67;1.33;;;;;;;;;;5048867;28;20037;-71
2022/07/25 12:02:47;;;;;;;3.63;3.08;;;;;;;;;;5046638;28;20025;-70
2022/07/25 12:05:14;;;;;;;2.35;2.15;;;;;;;;;;5047642;28;20021;-70
2022/07/25 12:07:53;;;;;;;0.30;0.30;;;;;;;;;;5028249;28;20163;-71
2022/07/25 12:10:39;;;;;;;5.75;2.92;;;;;;;;;;5049579;28;20537;-70
2022/07/25 12:13:06;;;;;;;6.78;2.50;;;;;;;;;;5028525;28;20076;-71
2022/07/25 12:15:34;;;;;;;2.15;1.85;;;;;;;;;;5034129;28;20025;-71
2022/07/25 12:18:01;;;;;;;1.73;1.60;;;;;;;;;;5049003;28;20021;-71
2022/07/25 12:20:29;;;;;;;3.55;1.90;;;;;;;;;;5050252;28;20021;-70
2022/07/25 12:22:56;;;;;;;2.78;2.15;;;;;;;;;;5061061;28;20036;-70
2022/07/25 12:25:21;;;;;;;2.40;1.73;;;;;;;;;;5053320;28;20036;-71
2022/07/25 12:27:47;;;;;;;2.92;2.50;;;;;;;;;;5052997;28;20017;-73
2022/07/25 12:30:13;;;;;;;4.63;3.47;;;;;;;;;;5053062;28;20056;-72
2022/07/25 12:32:39;;;;;;;4.05;2.38;;;;;;;;;;5053976;28;20025;-70
2022/07/25 12:35:05;;;;;;;4.18;3.22;;;;;;;;;;5050917;28;20951;-69
2022/07/25 12:37:31;;;;;;;0.47;0.47;;;;;;;;;;5051421;28;20048;-70
2022/07/25 12:43:24;;;;;;;0.70;0.70;;;;;;;;;;5048622;28;20158;-71
2022/07/25 12:45:50;;;;;;;3.55;1.88;;;;;;;;;;5047134;28;20496;-71
2022/07/25 12:48:15;;;;;;;4.85;2.47;;;;;;;;;;5039505;28;20038;-73
2022/07/25 12:50:41;;;;;;;3.42;2.13;;;;;;;;;;5041770;28;20082;-71
2022/07/25 12:56:35;;;;;;;6.88;3.90;;;;;;;;;;5040798;28;20039;-75
2022/07/25 12:59:01;;;;;;;2.15;1.75;;;;;;;;;;5049138;28;20033;-71
2022/07/25 13:01:26;;;;;;;0.52;0.52;;;;;;;;;;5048286;28;20118;-71
2022/07/25 13:03:52;;;;;;;5.13;3.38;;;;;;;;;;5049346;28;20033;-72
2022/07/25 13:06:19;;;;;;;3.13;2.03;;;;;;;;;;5048869;28;20028;-71
2022/07/25 13:08:45;;;;;;;3.30;1.98;;;;;;;;;;5049388;28;20504;-70
2022/07/25 13:11:11;;;;;;;7.95;2.13;;;;;;;;;;5045539;28;20048;-70
2022/07/25 13:13:37;;;;;;;0.98;0.77;;;;;;;;;;5049047;28;20024;-74
2022/07/25 13:16:02;;;;;;;4.07;2.63;;;;;;;;;;5049714;28;20218;-72
2022/07/25 13:18:29;;;;;;;4.93;2.88;;;;;;;;;;5047538;28;20025;-71
2022/07/25 13:20:54;;;;;;;2.40;2.17;;;;;;;;;;5047505;28;20508;-70
2022/07/25 13:23:20;;;;;;;5.90;2.63;;;;;;;;;;5048850;28;20032;-71
2022/07/25 13:25:45;;;;;;;1.50;0.90;;;;;;;;;;5047619;28;20024;-71
2022/07/25 13:28:10;;;;;;;4.18;2.53;;;;;;;;;;5048072;28;20033;-72
2022/07/25 13:30:36;;;;;;;3.05;2.25;;;;;;;;;;5048225;28;20087;-82
2022/07/25 13:33:01;;;;;;;0.93;0.90;;;;;;;;;;5028279;28;20157;-82
2022/07/25 13:35:27;;;;;;;5.40;2.15;;;;;;;;;;5042507;28;20029;-81
2022/07/25 13:37:52;;;;;;;5.70;3.42;;;;;;;;;;5038838;28;20040;-80
2022/07/25 13:40:18;;;;;;;2.78;1.90;;;;;;;;;;5050176;28;20028;-82
2022/07/25 13:42:43;;;;;;;3.47;1.95;;;;;;;;;;5048362;28;20029;-79
2022/07/25 13:45:09;;;;;;;2.35;1.70;;;;;;;;;;5046228;28;20095;-80
2022/07/25 13:47:35;;;;;;;1.10;1.05;;;;;;;;;;5033726;28;20033;-81
2022/07/25 13:50:00;;;;;;;4.28;3.22;;;;;;;;;;5046846;28;20040;-80
2022/07/25 13:52:26;;;;;;;2.95;1.77;;;;;;;;;;5048438;28;20381;-80
2022/07/25 13:54:51;;;;;;;0.98;0.90;;;;;;;;;;5034973;28;20024;-80
2022/07/25 13:57:18;;;;;;;9.07;3.03;;;;;;;;;;5047775;28;20469;-80
2022/07/25 13:59:44;;;;;;;3.75;2.33;;;;;;;;;;5044029;28;20083;-81
2022/07/25 14:02:09;;;;;;;4.63;2.65;;;;;;;;;;5039585;28;20485;-80
2022/07/25 14:04:35;;;;;;;3.58;2.30;;;;;;;;;;5027046;28;20385;-79
2022/07/25 14:07:01;;;;;;;2.35;1.50;;;;;;;;;;5027734;28;20068;-79
2022/07/25 14:09:27;;;;;;;2.35;2.13;;;;;;;;;;5045960;28;20688;-80
2022/07/25 14:11:53;;;;;;;4.93;2.88;;;;;;;;;;5053909;28;20013;-78
2022/07/25 14:14:18;;;;;;;0.82;0.82;;;;;;;;;;5062840;28;20086;-78
2022/07/25 14:16:44;;;;;;;0.50;0.50;;;;;;;;;;5050147;28;20120;-80
2022/07/25 14:19:09;;;;;;;4.68;2.63;;;;;;;;;;5062567;28;20588;-77
2022/07/25 14:21:34;;;;;;;3.28;2.33;;;;;;;;;;5048150;28;20025;-76
2022/07/25 14:24:00;;;;;;;2.42;1.67;;;;;;;;;;5047808;28;20659;-79
2022/07/25 14:26:27;;;;;;;2.05;1.45;;;;;;;;;;5048153;28;20032;-79
2022/07/25 14:28:53;;;;;;;3.20;2.47;;;;;;;;;;5047806;28;20155;-80
2022/07/25 14:31:20;;;;;;;6.75;2.65;;;;;;;;;;5062061;28;20051;-79
2022/07/25 14:33:45;;;;;;;2.33;1.77;;;;;;;;;;5048690;28;20044;-79
2022/07/25 14:36:11;;;;;;;3.15;1.63;;;;;;;;;;5048622;28;20037;-79
2022/07/25 14:38:37;;;;;;;2.40;1.70;;;;;;;;;;5047250;28;20037;-80
2022/07/25 14:41:02;;;;;;;3.72;2.22;;;;;;;;;;5027533;28;20029;-80
2022/07/25 14:43:28;;;;;;;4.20;2.33;;;;;;;;;;5038129;28;20090;-80
2022/07/25 14:45:54;;;;;;;1.92;1.52;;;;;;;;;;5045104;28;20840;-80